createdAt,value
2019-05-17T00:02:13.664Z,5.57
2019-05-17T00:04:46.983Z,4.80
2019-05-17T00:07:18.227Z,4.70
2019-05-17T00:09:49.737Z,4.30
2019-05-17T00:12:21.294Z,3.90
2019-05-17T00:14:52.495Z,4.93
2019-05-17T00:17:23.721Z,4.17
2019-05-17T00:19:56.855Z,4.20
2019-05-17T00:22:28.081Z,5.10
2019-05-17T00:24:59.410Z,4.90
2019-05-17T00:27:31.924Z,5.20
2019-05-17T00:30:03.153Z,4.80
2019-05-17T00:32:36.727Z,4.37
2019-05-17T00:35:08.151Z,5.40
2019-05-17T00:37:39.348Z,4.60
2019-05-17T00:40:10.903Z,3.97
2019-05-17T00:42:42.169Z,3.70
2019-05-17T00:45:32.188Z,3.53
2019-05-17T00:48:06.298Z,4.10
2019-05-17T00:50:38.091Z,4.50
2019-05-17T00:53:09.824Z,4.17
2019-05-17T00:55:42.153Z,4.73
2019-05-17T00:58:13.350Z,4.27
2019-05-17T01:00:47.689Z,6.37
2019-05-17T01:03:18.210Z,5.30
2019-05-17T01:05:49.579Z,4.43
2019-05-17T01:08:20.795Z,4.33
2019-05-17T01:10:52.065Z,4.33
2019-05-17T01:13:23.633Z,3.20
2019-05-17T01:15:56.597Z,4.10
2019-05-17T01:18:27.968Z,5.50
2019-05-17T01:20:59.192Z,3.70
2019-05-17T01:23:31.068Z,5.10
2019-05-17T01:26:02.442Z,5.43
2019-05-17T01:28:36.470Z,6.13
2019-05-17T01:31:06.895Z,4.27
2019-05-17T01:33:39.197Z,4.30
2019-05-17T01:36:10.473Z,4.20
2019-05-17T01:38:41.975Z,3.83
2019-05-17T01:41:13.266Z,3.80
2019-05-17T01:43:44.512Z,3.97
2019-05-17T01:46:17.148Z,6.60
2019-05-17T01:48:49.110Z,4.40
2019-05-17T01:51:27.076Z,4.13
2019-05-17T01:53:58.607Z,3.67
2019-05-17T01:56:29.826Z,4.07
2019-05-17T01:59:02.051Z,4.50
2019-05-17T02:01:33.847Z,4.27
2019-05-17T02:04:06.616Z,5.10
2019-05-17T02:06:38.320Z,4.10
2019-05-17T02:09:09.576Z,4.07
2019-05-17T02:11:41.066Z,3.10
2019-05-17T02:14:12.474Z,5.07
2019-05-17T02:16:43.700Z,5.10
2019-05-17T02:19:17.378Z,3.37
2019-05-17T02:21:48.573Z,5.67
2019-05-17T02:24:19.780Z,6.33
2019-05-17T02:26:51.032Z,3.50
2019-05-17T02:29:22.257Z,2.80
2019-05-17T02:31:54.081Z,3.00
2019-05-17T02:34:25.301Z,3.50
2019-05-17T02:36:56.528Z,3.37
2019-05-17T02:39:27.723Z,3.57
2019-05-17T02:41:59.103Z,4.87
2019-05-17T02:44:33.588Z,4.73
2019-05-17T02:47:03.436Z,7.50
2019-05-17T02:49:34.801Z,5.60
2019-05-17T02:52:06.478Z,7.20
2019-05-17T02:54:38.056Z,8.07
2019-05-17T02:57:09.351Z,5.67
2019-05-17T02:59:43.219Z,5.10
2019-05-17T03:02:14.212Z,4.60
2019-05-17T03:04:45.380Z,4.70
2019-05-17T03:07:16.748Z,4.43
2019-05-17T03:09:48.114Z,6.53
2019-05-17T03:12:19.544Z,4.93
2019-05-17T03:14:52.858Z,5.30
2019-05-17T03:17:24.238Z,7.10
2019-05-17T03:19:55.480Z,5.87
2019-05-17T03:22:27.117Z,8.87
2019-05-17T03:24:58.720Z,5.77
2019-05-17T03:27:33.509Z,6.63
2019-05-17T03:30:04.548Z,7.10
2019-05-17T03:32:37.319Z,7.33
2019-05-17T03:35:15.502Z,7.80
2019-05-17T03:37:43.762Z,7.67
2019-05-17T03:40:30.642Z,9.50
2019-05-17T03:42:48.166Z,9.10
2019-05-17T03:45:22.577Z,7.30
2019-05-17T03:47:53.205Z,10.90
2019-05-17T03:50:24.854Z,10.17
2019-05-17T03:52:56.070Z,8.57
2019-05-17T03:55:27.274Z,7.33
2019-05-17T03:57:58.764Z,9.50
2019-05-17T04:00:29.974Z,6.03
2019-05-17T04:03:03.069Z,7.97
2019-05-17T04:05:34.910Z,8.07
2019-05-17T04:08:06.082Z,5.70
2019-05-17T04:10:37.643Z,6.87
2019-05-17T04:13:08.968Z,7.07
2019-05-17T04:15:43.384Z,5.67
2019-05-17T04:18:13.695Z,8.00
2019-05-17T04:20:44.890Z,5.80
2019-05-17T04:23:16.148Z,7.50
2019-05-17T04:25:47.392Z,6.03
2019-05-17T04:28:18.615Z,10.23
2019-05-17T04:30:52.813Z,8.33
2019-05-17T04:33:23.669Z,10.20
2019-05-17T04:35:55.420Z,9.30
2019-05-17T04:38:26.989Z,8.83
2019-05-17T04:40:58.570Z,9.93
2019-05-17T04:43:33.447Z,7.57
2019-05-17T04:46:05.093Z,5.97
2019-05-17T04:48:36.770Z,6.63
2019-05-17T04:51:08.245Z,9.03
2019-05-17T04:53:42.803Z,9.57
2019-05-17T04:56:14.173Z,7.90
2019-05-17T04:58:49.954Z,8.47
2019-05-17T05:01:19.147Z,6.83
2019-05-17T05:03:52.487Z,10.67
2019-05-17T05:06:23.567Z,7.13
2019-05-17T05:08:54.803Z,15.10
2019-05-17T05:11:26.074Z,8.00
2019-05-17T05:13:57.282Z,9.10
2019-05-17T05:16:28.596Z,6.90
2019-05-17T05:19:02.790Z,8.87
2019-05-17T05:21:33.227Z,10.53
2019-05-17T05:24:04.467Z,10.30
2019-05-17T05:26:35.778Z,10.63
2019-05-17T05:29:07.044Z,9.23
2019-05-17T05:31:38.287Z,9.13
2019-05-17T05:34:12.162Z,11.00
2019-05-17T05:36:43.152Z,12.73
2019-05-17T05:39:14.652Z,11.07
2019-05-17T05:41:45.984Z,11.43
2019-05-17T05:44:17.368Z,12.03
2019-05-17T05:46:48.669Z,12.73
2019-05-17T05:49:21.697Z,11.40
2019-05-17T05:51:52.821Z,11.80
2019-05-17T05:54:24.299Z,11.13
2019-05-17T05:56:55.739Z,10.07
2019-05-17T05:59:26.988Z,10.77
2019-05-17T06:01:58.861Z,11.63
2019-05-17T06:04:31.860Z,10.63
2019-05-17T06:07:03.396Z,9.10
2019-05-17T06:09:34.697Z,9.93
2019-05-17T06:12:05.919Z,10.70
2019-05-17T06:14:37.536Z,7.50
2019-05-17T06:17:09.180Z,9.23
2019-05-17T06:19:42.194Z,11.47
2019-05-17T06:22:13.755Z,8.40
2019-05-17T06:24:44.986Z,7.17
2019-05-17T06:27:16.183Z,26.03
2019-05-17T06:29:47.996Z,14.60
2019-05-17T06:32:19.240Z,9.20
2019-05-17T06:34:51.490Z,8.43
2019-05-17T06:37:23.218Z,5.63
2019-05-17T06:39:55.224Z,6.10
2019-05-17T06:42:38.301Z,5.63
2019-05-17T06:45:01.947Z,5.03
2019-05-17T06:47:32.969Z,4.27
2019-05-17T06:50:04.667Z,5.73
2019-05-17T06:52:36.048Z,5.60
2019-05-17T06:55:07.734Z,5.50
2019-05-17T06:57:39.187Z,5.70
2019-05-17T07:00:18.119Z,4.67
2019-05-17T07:02:44.527Z,4.70
2019-05-17T07:05:20.072Z,4.03
2019-05-17T07:07:51.654Z,6.57
2019-05-17T07:10:23.455Z,5.13
2019-05-17T07:12:58.899Z,4.80
2019-05-17T07:15:43.363Z,4.33
2019-05-17T07:18:01.684Z,5.43
2019-05-17T07:20:33.323Z,4.87
2019-05-17T07:23:04.738Z,4.40
2019-05-17T07:25:36.016Z,5.23
2019-05-17T07:28:09.753Z,4.70
2019-05-17T07:30:40.516Z,3.87
2019-05-17T07:33:12.012Z,7.07
2019-05-17T07:35:43.208Z,8.13
2019-05-17T07:38:14.743Z,5.23
2019-05-17T07:40:46.309Z,4.90
2019-05-17T07:43:20.558Z,5.93
2019-05-17T07:45:51.301Z,5.23
2019-05-17T07:48:22.852Z,4.17
2019-05-17T07:50:54.092Z,4.30
2019-05-17T07:53:25.575Z,3.97
2019-05-17T07:55:56.785Z,4.20
2019-05-17T07:58:29.951Z,7.20
2019-05-17T08:01:02.399Z,4.70
2019-05-17T08:03:34.513Z,4.20
2019-05-17T08:06:05.834Z,4.77
2019-05-17T08:08:37.533Z,5.80
2019-05-17T08:11:12.128Z,4.90
2019-05-17T08:13:44.269Z,9.23
2019-05-17T08:16:16.319Z,5.00
2019-05-17T08:18:49.689Z,5.13
2019-05-17T08:21:21.104Z,4.03
2019-05-17T08:23:52.564Z,5.40
2019-05-17T08:26:23.795Z,5.40
2019-05-17T08:28:55.649Z,4.83
2019-05-17T08:31:44.993Z,5.47
2019-05-17T08:34:16.585Z,5.23
2019-05-17T08:36:50.199Z,5.57
2019-05-17T08:39:21.503Z,6.33
2019-05-17T08:41:52.774Z,6.50
2019-05-17T08:44:24.182Z,5.20
2019-05-17T08:46:55.617Z,5.23
2019-05-17T08:49:29.464Z,5.73
2019-05-17T08:51:59.998Z,5.27
2019-05-17T08:54:31.514Z,6.20
2019-05-17T08:57:02.818Z,5.83
2019-05-17T08:59:34.218Z,4.80
2019-05-17T09:02:05.463Z,7.97
2019-05-17T09:04:37.058Z,8.47
2019-05-17T09:07:09.472Z,5.90
2019-05-17T09:09:41.379Z,5.37
2019-05-17T09:12:12.638Z,7.93
2019-05-17T09:14:43.840Z,8.63
2019-05-17T09:17:15.085Z,5.30
2019-05-17T09:19:46.274Z,5.47
2019-05-17T09:22:19.670Z,6.73
2019-05-17T09:24:50.450Z,5.17
2019-05-17T09:27:21.730Z,4.80
2019-05-17T09:29:53.035Z,4.30
2019-05-17T09:32:25.124Z,4.30
2019-05-17T09:34:56.346Z,4.43
2019-05-17T09:37:30.336Z,3.63
2019-05-17T09:40:01.044Z,5.20
2019-05-17T09:42:32.316Z,4.83
2019-05-17T09:45:03.693Z,5.77
2019-05-17T09:47:34.929Z,3.60
2019-05-17T09:50:07.021Z,3.77
2019-05-17T09:52:40.615Z,4.47
2019-05-17T09:55:12.863Z,4.07
2019-05-17T09:57:45.112Z,4.17
2019-05-17T10:00:20.602Z,4.67
2019-05-17T10:02:52.184Z,4.40
2019-05-17T10:05:31.081Z,2.70
2019-05-17T10:08:01.288Z,6.80
2019-05-17T10:10:37.017Z,4.20
2019-05-17T10:13:09.813Z,3.93
2019-05-17T10:15:41.500Z,3.00
2019-05-17T10:18:13.073Z,3.20
2019-05-17T10:20:44.317Z,3.83
2019-05-17T10:23:16.375Z,5.33
2019-05-17T10:25:50.058Z,4.20
2019-05-17T10:28:23.207Z,3.37
2019-05-17T10:30:55.417Z,4.30
2019-05-17T10:33:26.825Z,3.30
2019-05-17T10:36:00.406Z,3.73
2019-05-17T10:38:31.046Z,6.37
2019-05-17T10:41:10.511Z,3.70
2019-05-17T10:43:41.744Z,2.77
2019-05-17T10:46:13.021Z,2.97
2019-05-17T10:48:44.632Z,4.10
2019-05-17T10:51:15.929Z,3.20
2019-05-17T10:53:47.197Z,2.57
2019-05-17T10:56:23.204Z,2.30
2019-05-17T10:58:52.651Z,3.40
2019-05-17T11:01:23.878Z,2.93
2019-05-17T11:03:55.332Z,2.77
2019-05-17T11:06:27.299Z,4.30
2019-05-17T11:08:59.472Z,3.10
2019-05-17T11:11:31.098Z,3.00
2019-05-17T11:14:03.038Z,3.80
2019-05-17T11:16:34.301Z,3.27
2019-05-17T11:19:08.633Z,2.63
2019-05-17T11:21:38.919Z,3.20
2019-05-17T11:27:34.949Z,3.00
2019-05-17T11:30:06.806Z,4.33
2019-05-17T11:32:38.051Z,2.77
2019-05-17T11:35:09.483Z,3.40
2019-05-17T11:37:40.765Z,3.30
2019-05-17T11:40:13.055Z,2.80
2019-05-17T11:42:44.735Z,4.67
2019-05-17T11:45:27.222Z,3.13
2019-05-17T11:47:49.206Z,3.10
2019-05-17T11:50:20.924Z,4.27
2019-05-17T11:52:52.234Z,3.77
2019-05-17T11:55:23.823Z,3.37
2019-05-17T11:57:55.244Z,2.13
2019-05-17T12:00:28.108Z,3.50
2019-05-17T12:03:00.182Z,3.33
2019-05-17T12:05:33.573Z,9.07
2019-05-17T12:08:08.360Z,3.47
2019-05-17T12:10:37.778Z,3.93
2019-05-17T12:13:10.300Z,4.00
2019-05-17T12:15:45.355Z,5.27
2019-05-17T12:18:14.943Z,4.07
2019-05-17T12:20:46.314Z,6.17
2019-05-17T12:23:17.521Z,3.47
2019-05-17T12:25:48.961Z,4.50
2019-05-17T12:28:20.191Z,6.43
2019-05-17T12:30:51.769Z,5.33
2019-05-17T12:33:23.391Z,13.13
2019-05-17T12:35:54.639Z,16.57
2019-05-17T12:38:25.842Z,10.23
2019-05-17T12:40:57.065Z,11.70
2019-05-17T12:43:28.552Z,11.00
2019-05-17T12:46:01.409Z,7.97
2019-05-17T12:48:32.725Z,3.87
2019-05-17T12:51:04.155Z,8.57
2019-05-17T12:53:37.430Z,5.80
2019-05-17T12:56:08.714Z,3.83
2019-05-17T12:58:39.985Z,4.10
2019-05-17T13:01:11.210Z,3.70
2019-05-17T13:03:42.690Z,3.50
2019-05-17T13:06:13.909Z,6.00
2019-05-17T13:08:45.207Z,3.13
2019-05-17T13:11:16.428Z,2.17
2019-05-17T13:13:47.853Z,3.93
2019-05-17T13:16:19.529Z,3.30
2019-05-17T13:18:50.909Z,4.90
2019-05-17T13:21:22.445Z,5.17
2019-05-17T13:23:53.656Z,17.13
2019-05-17T13:26:24.892Z,8.57
2019-05-17T13:28:56.249Z,6.67
2019-05-17T13:31:27.647Z,2.63
2019-05-17T13:33:58.892Z,3.20
2019-05-17T13:36:30.282Z,2.00
2019-05-17T13:39:02.522Z,3.33
2019-05-17T13:41:34.194Z,3.13
2019-05-17T13:44:05.400Z,2.23
2019-05-17T13:46:37.503Z,2.77
2019-05-17T13:49:08.785Z,3.03
2019-05-17T13:51:52.532Z,2.90
2019-05-17T13:54:23.749Z,2.37
2019-05-17T13:56:54.970Z,2.20
2019-05-17T13:59:26.285Z,3.40
2019-05-17T14:01:58.195Z,2.93
2019-05-17T14:04:30.501Z,2.30
2019-05-17T14:07:03.580Z,2.30
2019-05-17T14:09:34.830Z,3.07
2019-05-17T14:12:06.033Z,2.10
2019-05-17T14:14:37.491Z,1.90
2019-05-17T14:17:09.263Z,2.83
2019-05-17T14:19:40.584Z,2.40
2019-05-17T14:22:12.388Z,1.83
2019-05-17T14:24:46.234Z,2.80
2019-05-17T14:27:19.353Z,2.50
2019-05-17T14:29:52.850Z,2.33
2019-05-17T14:32:24.332Z,2.17
2019-05-17T14:34:55.856Z,7.80
2019-05-17T14:37:27.468Z,4.10
2019-05-17T14:40:01.114Z,2.30
2019-05-17T14:42:34.425Z,1.90
2019-05-17T14:45:05.978Z,2.23
2019-05-17T14:47:37.389Z,6.20
2019-05-17T14:50:08.643Z,2.50
2019-05-17T14:52:40.030Z,2.50
2019-05-17T14:55:11.751Z,2.20
2019-05-17T14:57:43.381Z,1.83
2019-05-17T15:00:14.673Z,2.33
2019-05-17T15:02:45.949Z,3.90
2019-05-17T15:05:17.524Z,3.23
2019-05-17T15:07:48.802Z,2.13
2019-05-17T15:10:20.275Z,7.33
2019-05-17T15:12:51.733Z,5.90
2019-05-17T15:15:26.657Z,13.07
2019-05-17T15:18:00.530Z,6.00
2019-05-17T15:20:31.945Z,3.53
2019-05-17T15:23:03.610Z,4.53
2019-05-17T15:25:34.838Z,6.90
2019-05-17T15:28:06.185Z,5.67
2019-05-17T15:30:38.256Z,3.43
2019-05-17T15:33:09.699Z,2.23
2019-05-17T15:35:41.290Z,2.90
2019-05-17T15:38:12.546Z,2.80
2019-05-17T15:40:43.807Z,3.63
2019-05-17T15:43:14.988Z,2.40
2019-05-17T15:45:46.232Z,3.20
2019-05-17T15:48:17.736Z,5.93
2019-05-17T15:50:49.202Z,1.97
2019-05-17T15:53:20.537Z,2.80
2019-05-17T15:55:52.242Z,3.73
2019-05-17T15:58:23.423Z,3.20
2019-05-17T16:00:55.795Z,3.27
2019-05-17T16:03:27.345Z,3.70
2019-05-17T16:05:59.282Z,3.97
2019-05-17T16:08:31.603Z,5.33
2019-05-17T16:11:06.354Z,2.60
2019-05-17T16:13:39.679Z,3.30
2019-05-17T16:16:11.761Z,2.67
2019-05-17T16:18:43.178Z,3.03
2019-05-17T16:21:14.709Z,5.10
2019-05-17T16:23:46.709Z,2.50
2019-05-17T16:26:18.125Z,2.13
2019-05-17T16:28:49.332Z,2.80
2019-05-17T16:31:20.745Z,3.00
2019-05-17T16:33:51.958Z,2.30
2019-05-17T16:36:23.176Z,2.53
2019-05-17T16:38:58.451Z,2.80
2019-05-17T16:41:29.722Z,4.33
2019-05-17T16:44:00.926Z,5.40
2019-05-17T16:46:32.408Z,2.83
2019-05-17T16:49:04.012Z,2.50
2019-05-17T16:51:35.974Z,2.20
2019-05-17T16:54:07.816Z,3.37
2019-05-17T16:56:39.433Z,3.60
2019-05-17T16:59:10.708Z,3.77
2019-05-17T17:01:41.920Z,2.30
2019-05-17T17:04:13.452Z,7.53
2019-05-17T17:06:45.984Z,5.20
2019-05-17T17:09:17.248Z,3.13
2019-05-17T17:11:48.601Z,5.47
2019-05-17T17:14:25.216Z,3.17
2019-05-17T17:16:56.475Z,2.27
2019-05-17T17:19:28.185Z,2.73
2019-05-17T17:21:59.604Z,2.50
2019-05-17T17:24:31.397Z,3.00
2019-05-17T17:27:02.951Z,4.73
2019-05-17T17:29:34.671Z,3.87
2019-05-17T17:32:19.454Z,2.63
2019-05-17T17:34:39.116Z,2.60
2019-05-17T17:37:11.007Z,2.70
2019-05-17T17:39:42.277Z,3.13
2019-05-17T17:42:13.440Z,3.53
2019-05-17T17:44:45.775Z,4.13
2019-05-17T17:47:17.387Z,2.93
2019-05-17T17:49:49.028Z,3.50
2019-05-17T17:52:20.274Z,5.20
2019-05-17T17:54:53.691Z,5.30
2019-05-17T17:57:25.180Z,4.60
2019-05-17T17:59:56.444Z,7.30
2019-05-17T18:02:28.607Z,4.87
2019-05-17T18:04:59.975Z,5.93
2019-05-17T18:07:31.312Z,6.30
2019-05-17T18:10:02.671Z,3.40
2019-05-17T18:12:34.023Z,3.03
2019-05-17T18:15:07.639Z,3.53
2019-05-17T18:17:39.685Z,3.83
2019-05-17T18:20:17.044Z,16.87
2019-05-17T18:22:53.550Z,10.03
2019-05-17T18:25:24.855Z,5.50
2019-05-17T18:27:56.617Z,5.43
2019-05-17T18:30:28.494Z,5.63
2019-05-17T18:33:00.015Z,7.53
2019-05-17T18:35:31.580Z,5.13
2019-05-17T18:38:03.355Z,5.73
2019-05-17T18:40:34.619Z,5.00
2019-05-17T18:43:05.961Z,4.20
2019-05-17T18:45:37.345Z,4.43
2019-05-17T18:48:09.111Z,6.63
2019-05-17T18:50:40.366Z,4.63
2019-05-17T18:53:16.801Z,5.33
2019-05-17T18:55:44.996Z,4.90
2019-05-17T18:58:16.196Z,3.20
2019-05-17T19:00:47.812Z,3.77
2019-05-17T19:03:19.232Z,3.57
2019-05-17T19:05:50.951Z,3.40
2019-05-17T19:08:22.184Z,3.83
2019-05-17T19:10:54.141Z,5.63
2019-05-17T19:13:25.632Z,3.60
2019-05-17T19:15:56.830Z,3.90
2019-05-17T19:18:28.070Z,3.53
2019-05-17T19:20:59.476Z,4.93
2019-05-17T19:23:31.178Z,5.80
2019-05-17T19:26:03.053Z,3.97
2019-05-17T19:28:37.274Z,4.60
2019-05-17T19:31:08.542Z,6.87
2019-05-17T19:33:40.263Z,3.67
2019-05-17T19:36:11.515Z,5.30
2019-05-17T19:38:42.749Z,5.20
2019-05-17T19:41:14.323Z,7.00
2019-05-17T19:43:45.678Z,6.13
2019-05-17T19:46:16.907Z,5.70
2019-05-17T19:48:48.617Z,7.23
2019-05-17T19:51:20.038Z,5.10
2019-05-17T19:53:51.657Z,4.77
2019-05-17T19:56:22.912Z,3.83
2019-05-17T19:58:54.641Z,4.60
2019-05-17T20:01:26.930Z,3.57
2019-05-17T20:03:58.618Z,2.70
2019-05-17T20:06:29.840Z,4.83
2019-05-17T20:09:01.392Z,4.33
2019-05-17T20:11:34.672Z,4.83
2019-05-17T20:14:05.538Z,3.77
2019-05-17T20:16:36.769Z,3.47
2019-05-17T20:19:08.323Z,2.87
2019-05-17T20:21:39.590Z,3.50
2019-05-17T20:24:10.769Z,3.60
2019-05-17T20:26:42.035Z,5.40
2019-05-17T20:29:13.733Z,4.03
2019-05-17T20:31:45.576Z,5.23
2019-05-17T20:34:17.088Z,5.27
2019-05-17T20:36:48.763Z,5.00
2019-05-17T20:39:20.040Z,3.90
2019-05-17T20:41:51.399Z,4.40
2019-05-17T20:44:22.945Z,3.80
2019-05-17T20:46:54.146Z,8.60
2019-05-17T20:49:25.504Z,13.83
2019-05-17T20:51:56.866Z,11.30
2019-05-17T20:54:28.062Z,10.17
2019-05-17T20:56:59.546Z,9.07
2019-05-17T20:59:31.579Z,7.80
2019-05-17T21:02:03.029Z,4.00
2019-05-17T21:04:34.232Z,6.30
2019-05-17T21:07:05.468Z,7.20
2019-05-17T21:09:37.367Z,9.33
2019-05-17T21:12:08.635Z,6.43
2019-05-17T21:14:40.088Z,5.20
2019-05-17T21:17:12.003Z,8.03
2019-05-17T21:19:43.244Z,7.60
2019-05-17T21:22:15.124Z,6.20
2019-05-17T21:24:46.707Z,4.70
2019-05-17T21:27:17.991Z,5.10
2019-05-17T21:29:49.913Z,4.87
2019-05-17T21:32:21.127Z,4.60
2019-05-17T21:34:52.475Z,5.60
2019-05-17T21:37:23.712Z,5.53
2019-05-17T21:39:55.423Z,8.10
2019-05-17T21:42:26.811Z,4.60
2019-05-17T21:44:58.625Z,4.07
2019-05-17T21:47:29.852Z,4.10
2019-05-17T21:50:02.896Z,3.93
2019-05-17T21:52:34.237Z,4.50
2019-05-17T21:55:05.512Z,6.17
2019-05-17T21:57:36.752Z,5.73
2019-05-17T22:00:10.985Z,5.97
2019-05-17T22:02:43.460Z,4.73
2019-05-17T22:05:22.973Z,4.93
2019-05-17T22:07:54.262Z,4.67
2019-05-17T22:10:25.960Z,4.33
2019-05-17T22:12:57.322Z,5.70
2019-05-17T22:15:29.376Z,4.47
2019-05-17T22:18:18.868Z,4.87
2019-05-17T22:20:50.232Z,4.87
2019-05-17T22:23:39.403Z,4.77
2019-05-17T22:26:22.821Z,4.87
2019-05-17T22:28:54.419Z,6.60
2019-05-17T22:31:25.691Z,6.60
2019-05-17T22:33:57.276Z,4.40
2019-05-17T22:36:28.815Z,5.17
2019-05-17T22:39:00.313Z,9.73
2019-05-17T22:41:31.514Z,7.90
2019-05-17T22:44:03.280Z,8.90
2019-05-17T22:46:36.414Z,6.00
2019-05-17T22:49:07.796Z,5.33
2019-05-17T22:51:39.012Z,4.60
2019-05-17T22:54:10.448Z,5.03
2019-05-17T22:56:41.861Z,6.20
2019-05-17T22:59:13.217Z,5.40
2019-05-17T23:01:45.085Z,5.30
2019-05-17T23:04:16.409Z,5.03
2019-05-17T23:06:47.745Z,4.30
2019-05-17T23:09:19.028Z,5.10
2019-05-17T23:11:50.252Z,6.70
2019-05-17T23:14:21.494Z,5.00
2019-05-17T23:16:53.079Z,5.20
2019-05-17T23:19:24.550Z,4.60
2019-05-17T23:21:56.118Z,4.83
2019-05-17T23:27:52.239Z,4.10
2019-05-17T23:30:23.607Z,5.10
2019-05-17T23:32:54.787Z,9.00
2019-05-17T23:35:25.985Z,4.70
2019-05-17T23:37:57.423Z,6.17
2019-05-17T23:40:28.637Z,5.40
2019-05-17T23:42:59.920Z,4.93
2019-05-17T23:45:31.327Z,6.97
2019-05-17T23:48:03.929Z,4.20
2019-05-17T23:50:35.196Z,5.00
2019-05-17T23:53:06.690Z,5.53
2019-05-17T23:55:38.143Z,5.60
2019-05-17T23:58:09.388Z,5.47
